NCAR-RAP Real-Time Weather Data

Output produced by METARs form (12 August 2020  18:45 UTC)
found at http://weather.rap.ucar.edu/surface/
 
KORF 121751Z 14007KT 10SM FEW041 FEW050 33/23 A3000 RMK AO2 SLP158 T03330233 10339 20261 58013
KORF 121651Z 20006KT 10SM SCT039 33/24 A3002 RMK AO2 SLP164 T03330239
KORF 121551Z VRB03KT 10SM CLR 31/25 A3003 RMK AO2 SLP168 T03110250
KORF 121451Z 20004KT 10SM CLR 31/25 A3004 RMK AO2 SLP171 T03060250 50000
KORF 121351Z 22004KT 10SM CLR 29/25 A3004 RMK AO2 SLP172 T02890250
KORF 121251Z 17004KT 10SM BKN051 27/25 A3004 RMK AO2 SLP173 T02720250
KORF 121151Z 17004KT 10SM CLR 26/24 A3004 RMK AO2 SLP171 70141 T02610244 10261 20244 51015
KORF 121051Z 00000KT 10SM CLR 25/24 A3002 RMK AO2 SLP164 T02500239
KORF 120951Z AUTO 16004KT 10SM CLR 24/23 A3001 RMK AO2 SLP163 T02440233 TSNO
KORF 120851Z AUTO 18004KT 10SM CLR 25/23 A2999 RMK AO2 SLP156 T02500233 53001
KORF 120751Z AUTO 20003KT 10SM CLR 25/23 A2999 RMK AO2 SLP155 T02500233
KORF 120651Z AUTO 19004KT 10SM CLR 25/23 A2999 RMK AO2 SLP154 T02500233
KORF 120551Z AUTO 22006KT 10SM CLR 25/23 A2999 RMK AO2 SLP155 T02500233 10267 20250 51001
KORF 120451Z AUTO 23006KT 10SM CLR 25/23 A2999 RMK AO2 SLP155 T02500233 403330239
KORF 120351Z AUTO 19006KT 10SM CLR 26/23 A2999 RMK AO2 SLP154 T02560233
KORF 120251Z 19004KT 10SM CLR 25/23 A2999 RMK AO2 SLP154 T02500233 50013
KORF 120151Z 20006KT 10SM FEW110 26/23 A2999 RMK AO2 SLP155 T02560233
KORF 120051Z 17006KT 10SM FEW100 26/23 A2997 RMK AO2 SLP147 T02610233
KORF 112351Z 22003KT 10SM FEW037 FEW095 26/24 A2995 RMK AO2 RAB22E36 SLP141 P0000 60141 T02560239 10328 20239 58006
KORF 112340Z 18003KT 10SM FEW025 SCT100 26/24 A2994 RMK AO2 RAB22E36 P0000 T02560239
KORF 112319Z 17007KT 10SM BKN027 BKN070 OVC110 26/23 A2994 RMK AO2 T02560233
KORF 112251Z 24004KT 10SM FEW085 25/23 A2996 RMK AO2 LTG DSNT W RAE27 TSE00 SLP144 P0003 T02500233
KORF 112221Z 22007KT 10SM -RA FEW075 FEW090 BKN110 24/23 A2996 RMK AO2 LTG DSNT SW AND W TSE00 P0003 T02440228
KORF 112206Z 20013KT 7SM VCTS RA FEW047 SCT085 OVC110 24/22 A2996 RMK AO2 LTG DSNT SW AND W TSE00 P0002 T02440217
KORF 112159Z 27007KT 6SM -TSRA SCT047 BKN085 OVC100 24/21 A2997 RMK AO2 LTG DSNT SW AND W P0002 T02440211
KORF 112151Z 25008KT 2 1/2SM TSRA BKN047 BKN070 OVC100 24/21 A2998 RMK AO2 LTG DSNT SW AND W SLP151 P0119 T02440211
KORF 112135Z 25011KT 1/2SM R05/2200V5000FT +TSRA FG OVC036 24/22 A2998 RMK AO2 LTG DSNT SW P0099 T02440222
KORF 112127Z 26011KT 1/2SM R05/2200VP6000FT +TSRA FG BKN024 BKN047 OVC075 24/23 A2999 RMK AO2 LTG DSNT S-W P0092 T02440228
KORF 112118Z 21010G19KT 1/2SM R05/1800V3500FT +TSRA FG BKN014 BKN048 OVC080 25/23 A2999 RMK AO2 LTG DSNT S AND SW P0058 T02500228
KORF 112115Z 20010G19KT 1/2SM R05/1800V3500FT +TSRA FG SCT018 BKN048 OVC100 25/23 A2999 RMK AO2 LTG DSNT S AND SW PRESRR P0032 T02500228
KORF 112054Z 07010G19KT 4SM TSRA FEW050 BKN080 BKN100 26/22 A2997 RMK AO2 LTG DSNT E-SW P0000 T02560222
KORF 112051Z 07005KT 1 3/4SM TSRA FEW048 SCT065 BKN080 25/22 A2997 RMK AO2 LTG DSNT E-S RAE17B35 TSB00E20B23 SLP147 P0012 60019 T02500222 55002
KORF 112045Z 31005KT 1 3/4SM +TSRA SCT050 BKN080 BKN100 26/22 A2997 RMK AO2 LTG DSNT E-S RAE17B35 TSB00E20B23 P0005
KORF 112006Z 08009KT 8SM -TSRA FEW032 BKN085 OVC100 28/24 A2995 RMK AO2 LTG DSNT E TSB00 P0001 T02830239
KORF 111954Z VRB04KT 3SM VCTS -RA FEW041 SCT070 OVC090 28/23 A2995 RMK AO2 P0001 T02780233
KORF 111951Z 08006KT 1 1/2SM RA FEW044 BKN070 OVC090 28/23 A2995 RMK AO2 VIS 3/4V5 RAB03E15B34 SLP141 P0007 T02780233
KORF 111944Z 00000KT 1 3/4SM R05/5000VP6000FT +RA SCT044 BKN065 OVC080 28/23 A2995 RMK AO2 RAB03E15B34 P0001 T02780233
KORF 111851Z 36006KT 10SM BKN042 OVC060 31/23 A2996 RMK AO2 SLP143 T03110233
KORF 111751Z VRB05KT 10SM BKN039 BKN050 BKN070 32/23 A2997 RMK AO2 SLP149 T03220233 10333 20261 58013
KORF 111651Z 19009KT 10SM SCT037 32/23 A2999 RMK AO2 SLP154 T03220233
KORF 111551Z 19008KT 10SM SCT029 BKN036 31/23 A3001 RMK AO2 SLP161 T03110233
KORF 111451Z 20007KT 10SM FEW026 31/23 A3001 RMK AO2 SLP161 T03060233 51007
KORF 111351Z AUTO 19004KT 10SM CLR 29/23 A3000 RMK AO2 SLP159 T02890233
KORF 111251Z AUTO 20006KT 10SM CLR 28/23 A3000 RMK AO2 SLP157 T02780228
KORF 111151Z AUTO 20007KT 10SM CLR 26/24 A2999 RMK AO2 SLP154 70034 T02610239 10261 20244 53004
KORF 111051Z AUTO 18004KT 10SM CLR 25/23 A2998 RMK AO2 SLP152 T02500233
KORF 110951Z 18005KT 10SM CLR 25/23 A2998 RMK AO2 SLP150 T02500233
KORF 110851Z 19004KT 10SM CLR 25/23 A2997 RMK AO2 SLP149 T02500228 56009
KORF 110751Z 20004KT 10SM SCT049 BKN060 25/23 A2998 RMK AO2 SLP152 T02500228
KORF 110651Z 17003KT 10SM CLR 26/23 A2999 RMK AO2 SLP155 T02560228
KORF 110551Z 21003KT 10SM CLR 25/22 A3000 RMK AO2 SLP159 T02500222 10294 20250 50005
KORF 110451Z 22003KT 10SM CLR 26/23 A3001 RMK AO2 SLP161 T02560228 403330244
KORF 110351Z 21004KT 10SM CLR 26/23 A2999 RMK AO2 SLP156 T02560228
KORF 110251Z 20005KT 10SM CLR 26/22 A2999 RMK AO2 SLP154 T02610222 50005
KORF 110151Z 19003KT 10SM CLR 27/22 A2999 RMK AO2 SLP155 T02670222
KORF 110051Z 19005KT 10SM CLR 27/23 A2998 RMK AO2 SLP153 T02720228
KORF 102351Z 19006KT 10SM CLR 29/24 A2997 RMK AO2 SLP149 60034 T02940244 10333 20244 58009
KORF 102251Z 16007KT 10SM FEW065 30/24 A2998 RMK AO2 SLP153 T03000244
KORF 102151Z 16007KT 10SM CLR 29/21 A3000 RMK AO2 SLP158 T02940211
KORF 102051Z 17008KT 10SM CLR 28/22 A3000 RMK AO2 TSE00 SLP159 60034 T02830222 56013
KORF 102042Z 16008KT 10SM CLR 28/22 A3000 RMK AO2 TSE00 T02830222
KORF 102006Z 12009KT 10SM VCTS CLR 27/21 A3001 RMK AO2 TSE00 T02670211
KORF 101951Z 12007KT 10SM TS FEW075 FEW090 FEW110 27/21 A3001 RMK AO2 PK WND 09031/1924 RAB03E38 SLP163 P0034 T02670211
KORF 101922Z 09016KT 3SM +TSRA SCT031 SCT065 OVC095 26/20 A3002 RMK AO2 PK WND 08026/1908 RAB03 P0031 T02560200
KORF 101906Z 07015G21KT 1 3/4SM +TSRA FEW029 BKN035 OVC070 27/21 A3002 RMK AO2 RAB03 P0003 T02720211
KORF 101851Z 05012KT 10SM TS FEW028 BKN035 OVC075 29/22 A3003 RMK AO2 TSB07 SLP167 T02940217